createdAt,value
2022-11-16T00:00:15.070Z,8.77
2022-11-16T00:03:16.836Z,7.53
2022-11-16T00:06:19.484Z,9.30
2022-11-16T00:09:23.951Z,7.50
2022-11-16T00:12:25.399Z,6.50
2022-11-16T00:15:27.685Z,6.63
2022-11-16T00:18:29.940Z,7.27
2022-11-16T00:21:32.024Z,7.67
2022-11-16T00:24:34.499Z,8.70
2022-11-16T00:27:35.925Z,8.97
2022-11-16T00:30:37.539Z,9.87
2022-11-16T00:33:39.835Z,9.97
2022-11-16T00:36:41.544Z,7.10
2022-11-16T00:39:43.101Z,6.77
2022-11-16T00:42:47.425Z,9.37
2022-11-16T00:45:48.917Z,8.10
2022-11-16T00:48:50.334Z,9.43
2022-11-16T00:51:51.723Z,7.90
2022-11-16T00:54:53.173Z,8.37
2022-11-16T00:57:54.672Z,6.20
2022-11-16T01:01:04.343Z,7.57
2022-11-16T01:04:05.892Z,8.00
2022-11-16T01:07:07.380Z,11.30
2022-11-16T01:10:12.831Z,9.77
2022-11-16T01:13:16.921Z,10.77
2022-11-16T01:16:21.892Z,9.57
2022-11-16T01:19:23.471Z,11.90
2022-11-16T01:22:25.023Z,8.67
2022-11-16T01:25:26.448Z,7.90
2022-11-16T01:28:29.390Z,7.20
2022-11-16T01:31:30.872Z,6.57
2022-11-16T01:34:33.362Z,9.37
2022-11-16T01:37:40.940Z,8.30
2022-11-16T01:40:42.519Z,9.73
2022-11-16T01:43:57.295Z,8.13
2022-11-16T01:47:08.880Z,7.67
2022-11-16T01:50:16.079Z,11.33
2022-11-16T01:53:19.845Z,7.87
2022-11-16T01:56:26.245Z,9.00
2022-11-16T01:59:45.811Z,10.73
2022-11-16T02:02:51.949Z,9.30
2022-11-16T02:06:24.701Z,8.27
2022-11-16T02:09:53.785Z,8.87
2022-11-16T02:13:12.330Z,10.67
2022-11-16T02:16:36.311Z,11.03
2022-11-16T02:19:58.937Z,8.73
2022-11-16T02:23:09.795Z,8.37
2022-11-16T02:26:26.900Z,8.77
2022-11-16T02:30:07.041Z,7.30
2022-11-16T02:33:15.110Z,9.83
2022-11-16T02:36:22.377Z,7.23
2022-11-16T02:39:27.313Z,7.60
2022-11-16T02:42:34.884Z,7.37
2022-11-16T02:45:43.213Z,6.90
2022-11-16T02:48:50.429Z,7.87
2022-11-16T02:51:53.203Z,7.53
2022-11-16T02:54:54.795Z,7.17
2022-11-16T02:58:00.103Z,6.70
2022-11-16T03:01:15.067Z,6.53
2022-11-16T03:04:35.446Z,6.13
2022-11-16T03:08:08.941Z,5.90
2022-11-16T03:11:29.880Z,6.60
2022-11-16T03:14:36.576Z,4.37
2022-11-16T03:17:42.639Z,5.40
2022-11-16T03:20:46.572Z,8.40
2022-11-16T03:23:48.515Z,4.90
2022-11-16T03:27:10.372Z,6.23
2022-11-16T03:30:23.816Z,5.57
2022-11-16T03:33:32.696Z,4.20
2022-11-16T03:36:36.683Z,5.53
2022-11-16T03:39:39.474Z,5.23
2022-11-16T03:42:43.824Z,9.27
2022-11-16T03:45:46.857Z,5.77
2022-11-16T03:48:58.225Z,6.90
2022-11-16T03:52:02.521Z,7.60
2022-11-16T03:55:05.732Z,7.33
2022-11-16T03:58:08.878Z,8.97
2022-11-16T04:01:10.448Z,6.77
2022-11-16T04:04:33.430Z,6.93
2022-11-16T04:07:53.882Z,6.83
2022-11-16T04:11:14.022Z,7.87
2022-11-16T04:14:39.369Z,6.83
2022-11-16T04:18:02.188Z,8.10
2022-11-16T04:21:22.457Z,7.67
2022-11-16T04:24:29.318Z,7.83
2022-11-16T04:27:49.517Z,7.77
2022-11-16T04:31:12.897Z,8.13
2022-11-16T04:34:37.037Z,7.73
2022-11-16T04:37:54.712Z,9.00
2022-11-16T04:41:26.660Z,8.83
2022-11-16T04:44:48.255Z,8.20
2022-11-16T04:47:50.715Z,8.10
2022-11-16T04:50:53.743Z,7.50
2022-11-16T04:53:55.313Z,7.93
2022-11-16T04:56:57.587Z,8.00
2022-11-16T04:59:59.526Z,7.37
2022-11-16T05:03:04.061Z,7.47
2022-11-16T05:06:05.928Z,8.97
2022-11-16T05:09:08.585Z,8.40
2022-11-16T05:12:17.062Z,8.00
2022-11-16T05:15:21.498Z,8.43
2022-11-16T05:18:24.299Z,7.70
2022-11-16T05:21:25.968Z,7.33
2022-11-16T05:24:33.498Z,7.60
2022-11-16T05:27:37.295Z,8.03
2022-11-16T05:30:40.383Z,7.37
2022-11-16T05:33:42.498Z,7.60
2022-11-16T05:36:44.955Z,7.10
2022-11-16T05:39:47.770Z,6.33
2022-11-16T05:42:49.869Z,9.00
2022-11-16T05:45:53.011Z,6.37
2022-11-16T05:48:54.919Z,8.33
2022-11-16T05:51:56.994Z,10.47
2022-11-16T05:54:58.856Z,9.03
2022-11-16T05:58:03.357Z,7.50
2022-11-16T06:01:05.268Z,7.10
2022-11-16T06:04:07.219Z,7.43
2022-11-16T06:07:08.756Z,8.03
2022-11-16T06:10:10.736Z,9.10
2022-11-16T06:13:14.057Z,7.17
2022-11-16T06:16:16.237Z,9.23
2022-11-16T06:19:17.664Z,7.63
2022-11-16T06:22:19.172Z,9.27
2022-11-16T06:25:20.893Z,9.63
2022-11-16T06:28:23.158Z,8.67
2022-11-16T06:31:24.692Z,8.83
2022-11-16T06:34:29.821Z,9.17
2022-11-16T06:37:32.834Z,8.37
2022-11-16T06:40:34.343Z,10.23
2022-11-16T06:43:37.615Z,10.20
2022-11-16T06:46:39.669Z,8.80
2022-11-16T06:49:42.314Z,10.53
2022-11-16T06:52:51.408Z,9.70
2022-11-16T06:55:53.668Z,9.13
2022-11-16T06:58:58.477Z,8.60
2022-11-16T07:02:02.474Z,7.77
2022-11-16T07:05:07.706Z,7.23
2022-11-16T07:08:09.570Z,9.87
2022-11-16T07:11:11.290Z,9.47
2022-11-16T07:14:13.226Z,8.77
2022-11-16T07:17:17.624Z,8.87
2022-11-16T07:20:20.877Z,8.77
2022-11-16T07:23:22.718Z,8.67
2022-11-16T07:26:25.037Z,10.17
2022-11-16T07:29:34.239Z,7.57
2022-11-16T07:32:59.161Z,8.07
2022-11-16T07:36:19.613Z,7.63
2022-11-16T07:39:21.802Z,8.60
2022-11-16T07:42:23.251Z,10.37
2022-11-16T07:45:43.025Z,10.03
2022-11-16T07:48:46.283Z,7.57
2022-11-16T07:52:09.715Z,9.27
2022-11-16T07:55:31.327Z,7.60
2022-11-16T07:58:35.393Z,8.73
2022-11-16T08:01:38.171Z,9.10
2022-11-16T08:04:39.769Z,8.80
2022-11-16T08:07:42.459Z,6.73
2022-11-16T08:10:44.063Z,8.70
2022-11-16T08:13:46.211Z,6.30
2022-11-16T08:16:47.706Z,6.17
2022-11-16T08:19:53.516Z,9.17
2022-11-16T08:22:59.484Z,6.43
2022-11-16T08:26:07.436Z,6.30
2022-11-16T08:29:09.090Z,5.77
2022-11-16T08:32:14.243Z,6.53
2022-11-16T08:35:15.771Z,7.80
2022-11-16T08:38:18.610Z,8.33
2022-11-16T08:41:21.371Z,6.37
2022-11-16T08:44:24.553Z,6.97
2022-11-16T08:47:28.396Z,7.73
2022-11-16T08:50:44.203Z,7.73
2022-11-16T08:53:57.203Z,6.30
2022-11-16T08:56:59.420Z,8.30
2022-11-16T09:00:02.687Z,4.13
2022-11-16T09:03:04.171Z,4.40
2022-11-16T09:06:06.865Z,9.23
2022-11-16T09:09:08.255Z,5.63
2022-11-16T09:12:09.669Z,5.07
2022-11-16T09:15:11.093Z,6.30
2022-11-16T09:18:12.492Z,6.53
2022-11-16T09:21:19.326Z,7.57
2022-11-16T09:24:20.804Z,7.50
2022-11-16T09:27:22.647Z,4.47
2022-11-16T09:30:24.171Z,5.03
2022-11-16T09:33:25.675Z,3.57
2022-11-16T09:36:28.796Z,7.73
2022-11-16T09:39:32.422Z,4.17
2022-11-16T09:42:49.321Z,5.43
2022-11-16T09:46:06.147Z,7.97
2022-11-16T09:49:17.581Z,11.47
2022-11-16T09:52:28.735Z,7.97
2022-11-16T09:55:37.800Z,4.97
2022-11-16T09:59:11.111Z,3.90
2022-11-16T10:02:33.895Z,8.00
2022-11-16T10:05:48.825Z,4.93
2022-11-16T10:08:53.379Z,3.50
2022-11-16T10:12:33.564Z,3.77
2022-11-16T10:15:47.169Z,8.20
2022-11-16T10:19:06.595Z,8.50
2022-11-16T10:22:45.866Z,4.03
2022-11-16T10:25:53.621Z,3.20
2022-11-16T10:29:33.934Z,7.17
2022-11-16T10:33:06.809Z,2.53
2022-11-16T10:36:16.389Z,6.43
2022-11-16T10:39:20.508Z,5.87
2022-11-16T10:42:36.712Z,5.53
2022-11-16T10:46:03.811Z,3.60
2022-11-16T10:49:31.428Z,3.40
2022-11-16T10:52:32.864Z,5.13
2022-11-16T10:55:34.314Z,4.60
2022-11-16T10:58:57.759Z,4.30
2022-11-16T11:02:01.264Z,4.73
2022-11-16T11:05:20.616Z,6.97
2022-11-16T11:08:30.425Z,4.17
2022-11-16T11:11:50.274Z,3.60
2022-11-16T11:15:11.175Z,4.13
2022-11-16T11:18:23.097Z,3.50
2022-11-16T11:21:27.005Z,3.27
2022-11-16T11:24:43.996Z,2.20
2022-11-16T11:27:46.332Z,6.00
2022-11-16T11:30:53.735Z,4.40
2022-11-16T11:33:59.214Z,4.53
2022-11-16T11:37:06.540Z,5.90
2022-11-16T11:40:25.878Z,4.03
2022-11-16T11:43:29.078Z,5.70
2022-11-16T11:47:11.017Z,4.33
2022-11-16T11:50:34.006Z,3.90
2022-11-16T11:53:58.186Z,4.27
2022-11-16T11:57:03.057Z,3.90
2022-11-16T12:00:06.275Z,5.33
2022-11-16T12:03:45.967Z,6.67
2022-11-16T12:07:07.250Z,4.87
2022-11-16T12:10:36.222Z,2.77
2022-11-16T12:14:05.642Z,3.33
2022-11-16T12:17:16.236Z,7.53
2022-11-16T12:20:17.671Z,5.47
2022-11-16T12:23:38.664Z,4.90
2022-11-16T12:26:49.371Z,5.73
2022-11-16T12:30:07.737Z,5.30
2022-11-16T12:33:28.532Z,4.23
2022-11-16T12:36:51.055Z,5.20
2022-11-16T12:40:04.761Z,13.40
2022-11-16T12:43:37.370Z,3.60
2022-11-16T12:46:43.692Z,3.10
2022-11-16T12:50:07.920Z,2.63
2022-11-16T12:53:42.011Z,3.77
2022-11-16T12:56:58.331Z,2.37
2022-11-16T13:00:07.037Z,6.07
2022-11-16T13:03:42.464Z,3.10
2022-11-16T13:06:53.962Z,3.33
2022-11-16T13:10:19.921Z,4.77
2022-11-16T13:13:38.335Z,2.27
2022-11-16T13:16:40.559Z,2.63
2022-11-16T13:19:45.736Z,2.77
2022-11-16T13:23:00.400Z,4.20
2022-11-16T13:26:10.248Z,2.67
2022-11-16T13:29:34.022Z,3.70
2022-11-16T13:33:13.032Z,4.83
2022-11-16T13:36:50.211Z,3.30
2022-11-16T13:39:57.366Z,3.37
2022-11-16T13:43:10.970Z,3.97
2022-11-16T13:46:27.703Z,3.27
2022-11-16T13:49:49.484Z,4.33
2022-11-16T13:56:25.569Z,6.07
2022-11-16T13:59:32.917Z,3.50
2022-11-16T14:02:40.980Z,8.30
2022-11-16T14:05:44.055Z,3.47
2022-11-16T14:08:56.233Z,5.27
2022-11-16T14:12:17.637Z,5.60
2022-11-16T14:15:21.946Z,3.50
2022-11-16T14:18:31.709Z,4.20
2022-11-16T14:21:51.609Z,5.00
2022-11-16T14:25:01.326Z,4.27
2022-11-16T14:28:19.433Z,4.47
2022-11-16T14:31:25.724Z,5.20
2022-11-16T14:34:32.658Z,3.17
2022-11-16T14:37:40.288Z,5.57
2022-11-16T14:40:56.238Z,4.77
2022-11-16T14:44:00.492Z,4.37
2022-11-16T14:47:02.985Z,4.30
2022-11-16T14:50:16.770Z,4.00
2022-11-16T14:53:19.892Z,3.70
2022-11-16T14:56:21.369Z,4.63
2022-11-16T14:59:22.761Z,4.63
2022-11-16T15:02:26.272Z,3.17
2022-11-16T15:05:32.672Z,4.90
2022-11-16T15:08:43.060Z,3.47
2022-11-16T15:12:06.784Z,2.93
2022-11-16T15:15:15.686Z,4.97
2022-11-16T15:18:20.485Z,5.80
2022-11-16T15:21:23.191Z,5.53
2022-11-16T15:24:35.654Z,2.73
2022-11-16T15:27:40.885Z,5.37
2022-11-16T15:30:46.168Z,7.37
2022-11-16T15:33:48.145Z,10.53
2022-11-16T15:36:50.068Z,9.10
2022-11-16T15:39:51.789Z,6.17
2022-11-16T15:42:53.615Z,8.20
2022-11-16T15:45:55.667Z,6.83
2022-11-16T15:48:58.685Z,5.20
2022-11-16T15:52:00.690Z,6.83
2022-11-16T15:55:04.783Z,8.17
2022-11-16T15:58:25.646Z,5.87
2022-11-16T16:01:29.379Z,7.40
2022-11-16T16:04:31.201Z,6.30
2022-11-16T16:07:43.018Z,7.87
2022-11-16T16:10:44.460Z,7.97
2022-11-16T16:14:01.793Z,10.17
2022-11-16T16:17:03.189Z,7.77
2022-11-16T16:20:07.217Z,7.60
2022-11-16T16:23:12.730Z,9.40
2022-11-16T16:26:15.056Z,12.03
2022-11-16T16:29:16.444Z,11.07
2022-11-16T16:32:28.266Z,9.37
2022-11-16T16:35:29.763Z,8.00
2022-11-16T16:38:31.138Z,9.33
2022-11-16T16:41:32.553Z,7.83
2022-11-16T16:44:33.982Z,12.83
2022-11-16T16:47:35.434Z,15.47
2022-11-16T16:50:37.224Z,10.10
2022-11-16T16:53:38.816Z,10.70
2022-11-16T16:56:40.351Z,10.40
2022-11-16T16:59:44.964Z,10.70
2022-11-16T17:02:46.375Z,13.00
2022-11-16T17:05:47.761Z,10.77
2022-11-16T17:08:49.134Z,11.40
2022-11-16T17:11:50.545Z,10.00
2022-11-16T17:14:52.035Z,14.10
2022-11-16T17:17:53.645Z,10.60
2022-11-16T17:20:55.028Z,13.13
2022-11-16T17:23:57.525Z,12.10
2022-11-16T17:26:58.914Z,11.37
2022-11-16T17:30:00.755Z,11.97
2022-11-16T17:33:02.185Z,11.47
2022-11-16T17:36:05.396Z,8.37
2022-11-16T17:39:06.852Z,10.27
2022-11-16T17:42:08.489Z,8.73
2022-11-16T17:45:11.875Z,8.40
2022-11-16T17:48:13.385Z,11.67
2022-11-16T17:51:17.551Z,10.73
2022-11-16T17:54:18.980Z,9.73
2022-11-16T17:57:20.440Z,11.07
2022-11-16T18:00:21.849Z,11.43
2022-11-16T18:03:29.297Z,11.50
2022-11-16T18:06:32.029Z,17.13
2022-11-16T18:09:33.436Z,14.43
2022-11-16T18:12:34.815Z,11.23
2022-11-16T18:15:42.093Z,11.53
2022-11-16T18:18:46.216Z,10.50
2022-11-16T18:21:48.689Z,10.53
2022-11-16T18:24:50.691Z,8.90
2022-11-16T18:27:53.684Z,11.60
2022-11-16T18:31:10.207Z,8.23
2022-11-16T18:34:15.379Z,11.87
2022-11-16T18:37:16.814Z,5.93
2022-11-16T18:40:18.283Z,9.07
2022-11-16T18:43:19.685Z,6.63
2022-11-16T18:46:32.197Z,8.57
2022-11-16T18:49:33.823Z,5.43
2022-11-16T18:52:35.227Z,8.60
2022-11-16T18:55:36.610Z,10.10
2022-11-16T18:58:54.099Z,9.30
2022-11-16T19:01:55.520Z,8.83
2022-11-16T19:04:56.977Z,11.43
2022-11-16T19:07:58.387Z,8.20
2022-11-16T19:11:08.023Z,10.97
2022-11-16T19:14:09.570Z,9.17
2022-11-16T19:17:11.033Z,6.00
2022-11-16T19:20:12.731Z,5.67
2022-11-16T19:23:14.155Z,8.53
2022-11-16T19:26:17.188Z,10.43
2022-11-16T19:29:18.586Z,9.13
2022-11-16T19:32:20.081Z,7.73
2022-11-16T19:35:21.477Z,9.07
2022-11-16T19:38:22.876Z,9.70
2022-11-16T19:41:25.454Z,6.63
2022-11-16T19:44:26.917Z,9.13
2022-11-16T19:47:29.936Z,7.47
2022-11-16T19:50:31.343Z,9.03
2022-11-16T19:53:33.445Z,5.87
2022-11-16T19:56:35.166Z,5.90
2022-11-16T19:59:36.547Z,7.53
2022-11-16T20:02:38.639Z,7.47
2022-11-16T20:05:40.046Z,11.20
2022-11-16T20:08:43.004Z,9.47
2022-11-16T20:11:44.448Z,8.27
2022-11-16T20:14:45.857Z,7.77
2022-11-16T20:17:47.310Z,8.90
2022-11-16T20:20:48.692Z,11.63
2022-11-16T20:23:54.102Z,11.30
2022-11-16T20:26:55.596Z,10.17
2022-11-16T20:29:56.981Z,11.17
2022-11-16T20:32:58.379Z,11.20
2022-11-16T20:36:10.992Z,13.83
2022-11-16T20:39:17.827Z,9.00
2022-11-16T20:42:19.313Z,10.30
2022-11-16T20:45:20.767Z,6.37
2022-11-16T20:48:22.272Z,8.97
2022-11-16T20:51:23.807Z,12.07
2022-11-16T20:54:25.207Z,11.07
2022-11-16T20:57:26.584Z,9.90
2022-11-16T21:00:27.975Z,10.40
2022-11-16T21:03:29.410Z,6.63
2022-11-16T21:06:31.528Z,7.00
2022-11-16T21:09:52.901Z,7.87
2022-11-16T21:13:12.772Z,9.30
2022-11-16T21:16:15.802Z,7.13
2022-11-16T21:19:17.272Z,7.60
2022-11-16T21:22:18.656Z,6.23
2022-11-16T21:25:20.088Z,6.87
2022-11-16T21:28:25.475Z,7.27
2022-11-16T21:31:32.597Z,6.77
2022-11-16T21:34:39.771Z,5.80
2022-11-16T21:37:41.614Z,6.03
2022-11-16T21:40:43.949Z,6.90
2022-11-16T21:43:45.862Z,6.37
2022-11-16T21:46:47.290Z,4.63
2022-11-16T21:50:16.926Z,8.20
2022-11-16T21:53:10.419Z,7.20
2022-11-16T21:56:14.152Z,7.70
2022-11-16T21:59:15.617Z,15.60
2022-11-16T22:02:17.331Z,11.53
2022-11-16T22:05:38.138Z,6.50
2022-11-16T22:08:40.154Z,5.63
2022-11-16T22:11:41.532Z,9.27
2022-11-16T22:14:42.923Z,7.80
2022-11-16T22:17:44.945Z,8.77
2022-11-16T22:20:47.930Z,6.47
2022-11-16T22:23:49.368Z,5.83
2022-11-16T22:26:53.186Z,5.37
2022-11-16T22:29:54.574Z,7.50
2022-11-16T22:32:55.966Z,8.33
2022-11-16T22:35:57.506Z,7.27
2022-11-16T22:38:58.961Z,6.20
2022-11-16T22:42:00.355Z,7.97
2022-11-16T22:45:01.749Z,7.40
2022-11-16T22:48:03.259Z,6.27
2022-11-16T22:51:17.653Z,7.70
2022-11-16T22:54:19.059Z,7.50
2022-11-16T22:57:20.456Z,5.40
2022-11-16T23:00:21.972Z,5.80
2022-11-16T23:03:23.503Z,8.00
2022-11-16T23:06:24.957Z,5.47
2022-11-16T23:09:26.340Z,6.23
2022-11-16T23:12:46.351Z,5.20
2022-11-16T23:15:50.468Z,7.87
2022-11-16T23:18:51.896Z,5.63
2022-11-16T23:22:12.064Z,5.63
2022-11-16T23:25:31.911Z,8.83
2022-11-16T23:28:33.369Z,8.93
2022-11-16T23:31:34.925Z,8.17
2022-11-16T23:34:36.310Z,11.07
2022-11-16T23:37:52.705Z,7.93
2022-11-16T23:40:54.098Z,8.10
2022-11-16T23:43:58.426Z,6.40
2022-11-16T23:46:59.809Z,6.77
2022-11-16T23:50:01.345Z,4.93
2022-11-16T23:53:02.956Z,6.13
2022-11-16T23:56:06.209Z,4.80
2022-11-16T23:59:07.761Z,7.80
